Latest Coastal Weather Observations for Smithton

IDV60701

Issued at 9:35 pm EST Tuesday 2 September 2014 (issued every 10 minutes, with the page automatically refreshed every 10 minutes)

About coastal observations | Map of coastal stations | Coastal observations for VIC | Marine services | Other Formats
Station Details ID: 091292 Name: SMITHTON AERODROME Lat: -40.83 Lon: 145.08 Height: 7.5 m
Data from the previous 72 hours. | See also: Recent months at Smithton
Date/Time
EST
Temp

°C
Wind Pressure Rain
since 9am
mm
Weather Cloud Vis
km
Sea
Height
m
Swell
Dir
 
Speed
knots
Gust
knots
hPa Trend Height
m
Period
s
Dir
02/09:30pm 3.6 SW 7 8 1022.5 - 0.0 - - - - - - -
02/09:00pm 5.0 CALM 0 5 1022.6 - 0.0 - - - - - - -
02/08:30pm 4.5 CALM 0 0 1022.5 - 0.0 - - - - - - -
02/08:00pm 5.1 SW 6 7 1022.4 - 0.0 - - - - - - -
02/07:30pm 5.6 SSW 7 8 1022.2 - 0.0 - - - - - - -
02/07:00pm 6.4 SSW 9 10 1021.9 - 0.0 - - - - - - -
02/06:30pm 7.5 SSW 9 14 1021.5 - 0.0 - - - - - - -
02/06:00pm 8.8 SSW 13 18 1021.1 - 0.0 - - - - - - -
02/05:30pm 9.8 SSW 13 17 1020.5 - 0.0 - - - - - - -
02/05:00pm 10.8 SW 13 17 1020.0 - 0.0 - - - - - - -
02/04:30pm 11.0 SW 13 17 1019.8 - 0.0 - - - - - - -
02/04:00pm 11.6 SW 16 19 1019.6 - 0.0 - - - - - - -
02/03:30pm 12.5 SSW 16 21 1019.4 - 0.0 - - - - - - -
02/03:00pm 13.0 SSW 17 23 1019.2 - 0.0 - - - - - - -
02/02:30pm 13.8 SSW 16 21 1018.8 - 0.0 - - - - - - -
02/02:00pm 13.7 SSW 19 24 1018.7 - 0.0 - - - - - - -
02/01:30pm 13.4 SSW 18 22 1018.6 - 0.0 - - - - - - -
02/01:00pm 13.6 SSW 17 24 1018.5 - 0.0 - - - - - - -
02/12:30pm 13.2 SSW 17 24 1018.7 - 0.0 - - - - - - -
02/12:00pm 13.4 SSW 16 20 1018.9 - 0.0 - - - - - - -
02/11:30am 12.7 S 16 22 1018.7 - 0.0 - - - - - - -
02/11:00am 12.4 SSW 16 23 1018.9 - 0.0 - - - - - - -
02/10:30am 12.0 S 15 20 1018.9 - 0.0 - - - - - - -
02/10:00am 11.5 S 16 23 1018.8 - 0.0 - - - - - - -
02/09:30am 10.9 S 13 17 1018.6 - 0.0 - - - - - - -
02/09:00am 9.8 S 12 18 1018.4 - 2.6 - - - - - - -
02/08:30am 8.6 S 10 14 1018.0 - 2.6 - - - - - - -
02/08:00am 7.0 SSW 8 10 1017.8 - 2.6 - - - - - - -
02/07:30am 5.4 SSW 7 8 1017.3 - 2.6 - - - - - - -
02/07:00am 5.6 SSE 6 9 1016.9 - 2.6 - - - - - - -
02/06:30am 4.6 SSW 10 11 1016.4 - 2.6 - - - - - - -
02/06:00am 5.9 S 12 16 1015.9 - 2.6 - - - - - - -
02/05:30am 5.7 SSW 12 14 1015.4 - 2.6 - - - - - - -
02/05:00am 6.3 SSW 14 19 1014.9 - 2.6 - - - - - - -
02/04:30am 6.3 S 12 15 1014.4 - 2.6 - - - - - - -
02/04:00am 6.3 S 7 11 1013.9 - 2.6 - - - - - - -
02/03:30am 5.4 S 9 11 1013.5 - 2.6 - - - - - - -
02/03:00am 4.9 SSW 7 8 1013.2 - 2.6 - - - - - - -
02/02:30am 4.9 SSW 9 10 1013.1 - 2.6 - - - - - - -
02/02:00am 4.2 SSW 7 9 1012.8 - 2.6 - - - - - - -
02/01:30am 4.6 SSW 9 10 1012.7 - 2.6 - - - - - - -
02/01:00am 4.8 SSW 6 7 1012.3 - 2.6 - - - - - - -
02/12:30am 5.0 SSW 7 8 1012.2 - 2.6 - - - - - - -
02/12:00am 5.3 SSW 7 8 1011.9 - 2.6 - - - - - - -
 
Date/Time
EST
Temp

°C
Wind Pressure Rain
since 9am
mm
Weather Cloud Vis
km
Sea
Height
m
Swell
Dir
 
Speed
knots
Gust
knots
hPa Trend Height
m
Period
s
Dir
01/11:30pm 5.7 SW 6 8 1011.7 - 2.6 - - - - - - -
01/11:00pm 6.5 SW 7 9 1011.3 - 2.6 - - - - - - -
01/10:30pm 5.4 SW 7 9 1011.1 - 2.6 - - - - - - -
01/10:00pm 5.6 SSW 7 9 1010.8 - 2.6 - - - - - - -
01/09:30pm 6.5 SSW 8 9 1010.5 - 2.6 - - - - - - -
01/09:00pm 7.3 SW 9 11 1010.5 - 2.6 - - - - - - -
01/08:30pm 7.5 SW 9 11 1010.3 - 2.6 - - - - - - -
01/08:00pm 8.3 SW 9 11 1009.9 - 2.6 - - - - - - -
01/07:30pm 8.3 SW 8 12 1009.4 - 2.6 - - - - - - -
01/07:00pm 8.8 SW 11 15 1008.8 - 2.6 - - - - - - -
01/06:30pm 8.8 SW 9 13 1008.1 - 2.6 - - - - - - -
01/06:00pm 9.6 SW 11 13 1007.8 - 2.6 - - - - - - -
01/05:30pm 10.6 SSW 13 20 1007.3 - 2.6 - - - - - - -
01/05:00pm 11.7 SW 12 14 1006.8 - 2.6 - - - - - - -
01/04:30pm 12.3 SSW 18 23 1006.2 - 2.6 - - - - - - -
01/04:00pm 13.1 SW 15 22 1005.6 - 2.6 - - - - - - -
01/03:30pm 12.9 SW 14 19 1005.4 - 2.6 - - - - - - -
01/03:00pm 13.1 SW 13 20 1005.2 - 2.6 - - - - - - -
01/02:30pm 13.0 SW 15 21 1004.8 - 2.6 - - - - - - -
01/02:00pm 12.4 SW 17 22 1004.8 - 2.6 - - - - - - -
01/01:30pm 13.0 SW 15 21 1004.7 - 2.6 - - - - - - -
01/01:00pm 13.0 SW 14 17 1004.7 - 2.6 - - - - - - -
01/12:30pm 12.2 SSW 13 18 1004.6 - 2.6 - - - - - - -
01/12:00pm 12.2 SW 15 19 1004.8 - 2.6 - - - - - - -
01/11:30am 12.4 WSW 11 14 1004.6 - 2.4 - - - - - - -
01/11:00am 12.3 WNW 6 7 1004.5 - 2.2 - - - - - - -
01/10:30am 12.2 WNW 8 11 1004.6 - 1.8 - - - - - - -
01/10:00am 12.5 NW 10 15 1004.6 - 1.4 - - - - - - -
01/09:30am 12.8 WNW 12 17 1004.5 - 0.6 - - - - - - -
01/09:00am 12.8 NNW 14 18 1004.5 - 1.0 - - - - - - -
01/08:30am 13.0 NNW 15 20 1004.4 - 1.0 - - - - - - -
01/08:00am 13.2 N 13 17 1004.4 - 1.0 - - - - - - -
01/07:30am 13.1 N 9 13 1004.3 - 0.8 - - - - - - -
01/07:00am 13.0 N 9 11 1004.5 - 0.6 - - - - - - -
01/06:30am 13.2 N 8 13 1004.9 - 0.4 - - - - - - -
01/06:00am 13.0 NNE 7 10 1004.9 - 0.2 - - - - - - -
01/05:30am 12.3 NNE 4 5 1005.1 - 0.2 - - - - - - -
01/05:00am 12.6 NNE 5 8 1005.4 - 0.2 - - - - - - -
01/04:30am 12.9 NNE 6 9 1005.4 - 0.2 - - - - - - -
01/04:00am 13.0 NNE 4 5 1006.1 - 0.2 - - - - - - -
01/03:30am 12.6 CALM 0 3 1005.6 - 0.2 - - - - - - -
01/03:00am 13.4 NE 6 9 1006.7 - 0.2 - - - - - - -
01/02:30am 14.0 NNE 6 8 1007.3 - 0.2 - - - - - - -
01/02:00am 13.6 NNE 5 6 1007.6 - 0.2 - - - - - - -
01/01:30am 13.8 NNE 6 8 1007.7 - 0.2 - - - - - - -
01/01:00am 14.3 NNE 8 12 1007.8 - 0.2 - - - - - - -
01/12:30am 13.8 ENE 8 10 1008.0 - 0.2 - - - - - - -
01/12:00am 13.8 ENE 9 11 1008.2 - 0.2 - - - - - - -
 
Date/Time
EST
Temp

°C
Wind Pressure Rain
since 9am
mm
Weather Cloud Vis
km
Sea
Height
m
Swell
Dir
 
Speed
knots
Gust
knots
hPa Trend Height
m
Period
s
Dir
31/11:30pm 14.1 ENE 11 16 1008.5 - 0.2 - - - - - - -
31/11:00pm 14.1 ENE 12 15 1008.6 - 0.2 - - - - - - -
31/10:30pm 13.6 ENE 14 18 1009.0 - 0.2 - - - - - - -
31/10:00pm 13.4 E 10 12 1010.0 - 0.0 - - - - - - -
31/09:30pm 13.6 ENE 11 16 1010.6 - 0.0 - - - - - - -
31/09:00pm 13.6 E 11 15 1010.5 - 0.0 - - - - - - -
31/08:30pm 13.3 E 13 17 1010.6 - 0.0 - - - - - - -
31/08:00pm 13.1 E 13 17 1011.0 - 0.0 - - - - - - -
31/07:30pm 12.9 E 12 16 1011.2 - 0.0 - - - - - - -
31/07:00pm 12.9 E 15 21 1011.3 - 0.0 - - - - - - -
31/06:30pm 12.6 E 14 18 1011.4 - 0.0 - - - - - - -
31/06:00pm 12.7 E 13 19 1011.3 - 0.0 - - - - - - -
31/05:30pm 13.1 E 14 18 1011.5 - 0.0 - - - - - - -
31/05:00pm 13.5 ENE 15 21 1011.6 - 0.0 - - - - - - -
31/04:30pm 14.2 ENE 15 21 1011.6 - 0.0 - - - - - - -
31/04:00pm 14.2 ENE 15 21 1012.0 - 0.0 - - - - - - -
31/03:30pm 14.5 ENE 15 21 1012.3 - 0.0 - - - - - - -
31/03:00pm 15.2 ENE 17 22 1012.7 - 0.0 - - - - - - -
31/02:30pm 15.0 ENE 16 21 1013.2 - 0.0 - - - - - - -
31/02:00pm 15.1 ENE 14 19 1013.5 - 0.0 - - - - - - -
31/01:30pm 15.6 ENE 14 18 1013.9 - 0.0 - - - - - - -
31/01:00pm 15.4 ENE 12 16 1014.5 - 0.0 - - - - - - -
31/12:30pm 15.0 NE 13 19 1015.1 - 0.0 - - - - - - -
31/12:00pm 14.9 NE 12 16 1015.6 - 0.0 - - - - - - -
31/11:30am 15.9 ENE 14 18 1015.7 - 0.0 - - - - - - -
31/11:00am 16.2 ENE 14 17 1016.1 - 0.0 - - - - - - -
31/10:30am 15.3 ENE 14 18 1016.7 - 0.0 - - - - - - -
31/10:00am 14.5 ENE 14 18 1016.8 - 0.0 - - - - - - -
31/09:30am 14.0 ENE 15 19 1017.0 - 0.0 - - - - - - -
31/09:00am 13.8 ENE 13 16 1017.5 - 0.2 - - - - - - -
31/08:30am 13.1 ENE 12 16 1017.8 - 0.2 - - - - - - -
31/08:00am 12.6 ENE 12 16 1017.8 - 0.2 - - - - - - -
31/07:30am 12.3 E 13 17 1017.7 - 0.2 - - - - - - -
31/07:00am 11.9 E 12 16 1017.7 - 0.2 - - - - - - -
31/06:30am 11.9 E 11 16 1017.9 - 0.2 - - - - - - -
31/06:00am 11.5 E 12 15 1017.9 - 0.2 - - - - - - -
31/05:30am 11.7 ENE 12 17 1017.9 - 0.2 - - - - - - -
31/05:00am 11.6 E 12 15 1017.8 - 0.2 - - - - - - -
31/04:30am 12.0 ENE 12 16 1018.2 - 0.2 - - - - - - -
31/04:00am 11.8 ENE 11 15 1018.4 - 0.2 - - - - - - -
31/03:30am 11.8 E 13 16 1018.6 - 0.2 - - - - - - -
31/03:00am 11.9 E 10 15 1019.0 - 0.2 - - - - - - -
31/02:30am 12.1 ENE 11 15 1019.5 - 0.2 - - - - - - -
31/02:00am 12.1 ENE 13 17 1019.4 - 0.2 - - - - - - -
31/01:30am 12.1 ENE 12 15 1020.2 - 0.2 - - - - - - -
31/01:00am 12.2 ENE 13 17 1020.5 - 0.2 - - - - - - -
31/12:30am 12.3 ENE 12 15 1020.9 - 0.2 - - - - - - -
31/12:00am 12.3 ENE 14 18 1021.1 - 0.2 - - - - - - -
 
Date/Time
EST
Temp

°C
Wind Pressure Rain
since 9am
mm
Weather Cloud Vis
km
Sea
Height
m
Swell
Dir
 
Speed
knots
Gust
knots
hPa Trend Height
m
Period
s
Dir
30/11:30pm 12.6 ENE 13 19 1021.3 - 0.2 - - - - - - -
30/11:00pm 12.4 ENE 15 21 1021.2 - 0.2 - - - - - - -
30/10:30pm 12.4 ENE 16 22 1021.4 - 0.2 - - - - - - -
30/10:00pm 12.3 ENE 15 21 1021.8 - 0.2 - - - - - - -

Other Formats:

Comma delimited format used in spreadsheet applications
http://www.bom.gov.au/fwo/IDV60701/IDV60701.94953.axf

JavaScript Object Notation format (JSON) in row-major order
http://www.bom.gov.au/fwo/IDV60701/IDV60701.94953.json